Terminal Aerodrome Forecast
Issued by NWS Albany, NY

Home | Current Version | Previous Version | Text Only | Print | Product List | Glossary On
Versions: 1 2 3 4 5 6 7 8 9 10 11 12 13 14 15 16
000
FTUS41 KALY 130500 CCA
TAFGFL
TAF COR
KGFL 130531Z 1306/1406 VRB02KT 3SM BR FEW060 SCT100 BKN200
      TEMPO 1306/1310 1/2SM FG BKN005
     FM131200 20007KT 6SM BR FEW010 SCT050 BKN100
     FM131600 20012KT P6SM VCSH BKN045 OVC060 PROB30 1318/1324 3SM
      TSRA BR OVC025CB
     FM140000 20008KT 4SM BR VCSH SCT025 BKN035=

USA.gov is the U.S. government's official web portal to all federal, state and local government web resources and services.